Time;durP1;ratioP1;P1;durP2;ratioP2;P2;SDS_P1;SDS_P2;PMS_P1;PMS_P2;Temp;Humidity;BMP_temperature;BMP_pressure;BME280_temperature;BME280_humidity;BME280_pressure;Samples;Min_cycle;Max_cycle;Signal;HPM_P1;HPM_P2
2023/06/07 00:00:29;;;;;;;;;;;;;;;;;;5027627;28;1175;-58
2023/06/07 00:02:57;;;;;;;;;;;;;;;;;;5024940;28;4475;-59
2023/06/07 00:05:22;;;;;;;;;;;;;;;;;;5025875;28;4413;-58
2023/06/07 00:07:47;;;;;;;;;;;;;;;;;;5026437;28;4640;-57
2023/06/07 00:10:12;;;;;;;;;;;;;;;;;;5042765;28;4997;-60
2023/06/07 00:12:38;;;;;;;;;;;;;;;;;;5023476;28;5068;-58
2023/06/07 00:15:04;;;;;;;;;;;;;;;;;;5028111;28;1156;-59
2023/06/07 00:17:30;;;;;;;;;;;;;;;;;;5025011;28;4587;-57
2023/06/07 00:19:55;;;;;;;;;;;;;;;;;;5026825;28;5094;-60
2023/06/07 00:22:21;;;;;;;;;;;;;;;;;;5026426;28;5409;-56
2023/06/07 00:24:46;;;;;;;;;;;;;;;;;;5026568;28;5008;-59
2023/06/07 00:27:11;;;;;;;;;;;;;;;;;;5027650;28;1164;-57
2023/06/07 00:29:37;;;;;;;;;;;;;;;;;;5023883;28;4511;-56
2023/06/07 00:32:02;;;;;;;;;;;;;;;;;;5023574;28;5281;-60
2023/06/07 00:34:28;;;;;;;;;;;;;;;;;;5023631;28;4528;-59
2023/06/07 00:36:53;;;;;;;;;;;;;;;;;;5023416;28;5010;-60
2023/06/07 00:39:19;;;;;;;;;;;;;;;;;;5024165;28;1207;-59
2023/06/07 00:41:44;;;;;;;;;;;;;;;;;;5023298;28;5138;-61
2023/06/07 00:44:12;;;;;;;;;;;;;;;;;;5024045;28;4591;-59
2023/06/07 00:46:37;;;;;;;;;;;;;;;;;;5025391;28;4512;-56
2023/06/07 00:49:02;;;;;;;;;;;;;;;;;;5023668;28;4518;-59
2023/06/07 00:51:28;;;;;;;;;;;;;;;;;;5027147;28;1969;-60
2023/06/07 00:53:53;;;;;;;;;;;;;;;;;;5043202;28;4591;-59
2023/06/07 00:56:19;;;;;;;;;;;;;;;;;;5033363;28;4489;-61
2023/06/07 00:58:44;;;;;;;;;;;;;;;;;;5026507;28;5745;-58
2023/06/07 01:01:09;;;;;;;;;;;;;;;;;;5024482;28;4619;-58
2023/06/07 01:03:35;;;;;;;;;;;;;;;;;;5045668;28;4545;-59
2023/06/07 01:06:02;;;;;;;;;;;;;;;;;;5041405;28;1418;-57
2023/06/07 01:08:27;;;;;;;;;;;;;;;;;;5026113;28;4458;-57
2023/06/07 01:10:52;;;;;;;;;;;;;;;;;;5056457;28;4518;-57
2023/06/07 01:13:18;;;;;;;;;;;;;;;;;;5042799;28;4671;-60
2023/06/07 01:15:43;;;;;;;;;;;;;;;;;;5057979;28;4546;-60
2023/06/07 01:18:09;;;;;;;;;;;;;;;;;;5027669;28;4837;-59
2023/06/07 01:20:35;;;;;;;;;;;;;;;;;;5030048;28;5011;-60
2023/06/07 01:23:00;;;;;;;;;;;;;;;;;;5060693;28;4460;-60
2023/06/07 01:25:26;;;;;;;;;;;;;;;;;;5041471;28;4775;-60
2023/06/07 01:27:52;;;;;;;;;;;;;;;;;;5029354;28;4844;-60
2023/06/07 01:30:17;;;;;;;;;;;;;;;;;;5030924;28;1061;-60
2023/06/07 01:32:43;;;;;;;;;;;;;;;;;;5029032;28;4568;-60
2023/06/07 01:35:09;;;;;;;;;;;;;;;;;;5044902;28;4480;-60
2023/06/07 01:37:34;;;;;;;;;;;;;;;;;;5057380;28;4449;-60
2023/06/07 01:39:59;;;;;;;;;;;;;;;;;;5029330;28;5004;-61
2023/06/07 01:42:25;;;;;;;;;;;;;;;;;;5030312;28;1156;-60
2023/06/07 01:44:50;;;;;;;;;;;;;;;;;;5028254;28;5310;-60
2023/06/07 01:47:15;;;;;;;;;;;;;;;;;;5028555;28;4450;-62
2023/06/07 01:49:41;;;;;;;;;;;;;;;;;;5060519;28;5216;-60
2023/06/07 01:52:06;;;;;;;;;;;;;;;;;;5028391;28;4487;-59
2023/06/07 01:54:32;;;;;;;;;;;;;;;;;;5028495;28;4528;-57
2023/06/07 01:57:04;;;;;;;;;;;;;;;;;;5028658;28;1189;-59
2023/06/07 01:59:35;;;;;;;;;;;;;;;;;;5026968;28;5043;-61
2023/06/07 02:02:07;;;;;;;;;;;;;;;;;;5026350;28;4461;-59
2023/06/07 02:04:34;;;;;;;;;;;;;;;;;;5058930;28;4459;-60
2023/06/07 02:07:00;;;;;;;;;;;;;;;;;;5058836;28;4654;-60
2023/06/07 02:09:26;;;;;;;;;;;;;;;;;;5043486;28;1207;-61
2023/06/07 02:11:51;;;;;;;;;;;;;;;;;;5055542;28;4409;-60
2023/06/07 02:14:17;;;;;;;;;;;;;;;;;;5042844;28;4675;-61
2023/06/07 02:16:42;;;;;;;;;;;;;;;;;;5027987;28;5075;-60
2023/06/07 02:19:08;;;;;;;;;;;;;;;;;;5044196;28;4682;-60
2023/06/07 02:21:36;;;;;;;;;;;;;;;;;;5028875;28;4481;-60
2023/06/07 02:24:02;;;;;;;;;;;;;;;;;;5028857;28;1833;-61
2023/06/07 02:26:27;;;;;;;;;;;;;;;;;;5028988;28;4439;-60
2023/06/07 02:28:53;;;;;;;;;;;;;;;;;;5027584;28;5126;-60
2023/06/07 02:31:20;;;;;;;;;;;;;;;;;;5032556;28;4547;-60
2023/06/07 02:33:45;;;;;;;;;;;;;;;;;;5028471;28;4613;-62
2023/06/07 02:36:12;;;;;;;;;;;;;;;;;;5028060;28;3140;-60
2023/06/07 02:38:38;;;;;;;;;;;;;;;;;;5028500;28;4801;-60
2023/06/07 02:41:03;;;;;;;;;;;;;;;;;;5027168;28;4503;-60
2023/06/07 02:43:28;;;;;;;;;;;;;;;;;;5028240;28;4432;-58
2023/06/07 02:45:53;;;;;;;;;;;;;;;;;;5027953;28;4496;-60
2023/06/07 02:48:19;;;;;;;;;;;;;;;;;;5027941;28;3212;-60
2023/06/07 02:50:46;;;;;;;;;;;;;;;;;;5028023;28;4417;-60
2023/06/07 02:53:11;;;;;;;;;;;;;;;;;;5026914;28;4987;-59
2023/06/07 02:55:36;;;;;;;;;;;;;;;;;;5027752;28;4978;-60
2023/06/07 02:58:02;;;;;;;;;;;;;;;;;;5028071;28;4549;-60
2023/06/07 03:00:27;;;;;;;;;;;;;;;;;;5028134;28;1341;-60
2023/06/07 03:02:52;;;;;;;;;;;;;;;;;;5026120;28;4421;-62
2023/06/07 03:05:18;;;;;;;;;;;;;;;;;;5042964;28;4508;-59
2023/06/07 03:07:43;;;;;;;;;;;;;;;;;;5033330;28;5134;-61
2023/06/07 03:10:08;;;;;;;;;;;;;;;;;;5027647;28;4465;-60
2023/06/07 03:12:34;;;;;;;;;;;;;;;;;;5024096;28;4538;-60
2023/06/07 03:14:59;;;;;;;;;;;;;;;;;;5028209;28;1145;-60
2023/06/07 03:17:25;;;;;;;;;;;;;;;;;;5026538;28;4449;-60
2023/06/07 03:19:51;;;;;;;;;;;;;;;;;;5026863;28;5071;-60
2023/06/07 03:22:17;;;;;;;;;;;;;;;;;;5027022;28;4662;-60
2023/06/07 03:24:43;;;;;;;;;;;;;;;;;;5026695;28;5013;-60
2023/06/07 03:27:08;;;;;;;;;;;;;;;;;;5028034;28;1109;-61
2023/06/07 03:29:33;;;;;;;;;;;;;;;;;;5026747;28;4891;-60
2023/06/07 03:31:59;;;;;;;;;;;;;;;;;;5025747;28;4658;-61
2023/06/07 03:34:26;;;;;;;;;;;;;;;;;;5027131;28;4853;-61
2023/06/07 03:36:51;;;;;;;;;;;;;;;;;;5026797;28;5005;-61
2023/06/07 03:39:17;;;;;;;;;;;;;;;;;;5027521;28;1121;-60
2023/06/07 03:41:42;;;;;;;;;;;;;;;;;;5026782;28;4401;-61
2023/06/07 03:44:07;;;;;;;;;;;;;;;;;;5027070;28;4608;-62
2023/06/07 03:46:33;;;;;;;;;;;;;;;;;;5025854;28;4607;-61
2023/06/07 03:48:58;;;;;;;;;;;;;;;;;;5027167;28;4730;-61
2023/06/07 03:51:25;;;;;;;;;;;;;;;;;;5027655;28;1917;-59
2023/06/07 03:53:50;;;;;;;;;;;;;;;;;;5026089;28;4397;-60
2023/06/07 03:56:15;;;;;;;;;;;;;;;;;;5026819;28;4414;-61
2023/06/07 03:58:41;;;;;;;;;;;;;;;;;;5034936;28;4489;-60
2023/06/07 04:01:06;;;;;;;;;;;;;;;;;;5045946;28;5223;-59
2023/06/07 04:03:31;;;;;;;;;;;;;;;;;;5058283;28;3155;-59
2023/06/07 04:05:57;;;;;;;;;;;;;;;;;;5034729;28;4399;-59
2023/06/07 04:08:22;;;;;;;;;;;;;;;;;;5025349;28;4929;-62
2023/06/07 04:10:48;;;;;;;;;;;;;;;;;;5024859;28;4470;-62
2023/06/07 04:13:13;;;;;;;;;;;;;;;;;;5026636;28;5059;-59
2023/06/07 04:15:38;;;;;;;;;;;;;;;;;;5025891;28;4454;-63
2023/06/07 04:18:03;;;;;;;;;;;;;;;;;;5026437;28;4634;-60
2023/06/07 04:20:29;;;;;;;;;;;;;;;;;;5026623;28;4718;-62
2023/06/07 04:22:54;;;;;;;;;;;;;;;;;;5026001;28;4498;-60
2023/06/07 04:25:21;;;;;;;;;;;;;;;;;;5026296;28;4454;-60
2023/06/07 04:27:48;;;;;;;;;;;;;;;;;;5026417;28;5095;-60
2023/06/07 04:30:15;;;;;;;;;;;;;;;;;;5044264;28;1248;-59
2023/06/07 04:32:41;;;;;;;;;;;;;;;;;;5025365;28;4461;-60
2023/06/07 04:35:06;;;;;;;;;;;;;;;;;;5025541;28;4502;-60
2023/06/07 04:37:32;;;;;;;;;;;;;;;;;;5026320;28;5089;-61
2023/06/07 04:39:57;;;;;;;;;;;;;;;;;;5025148;28;5168;-61
2023/06/07 04:42:23;;;;;;;;;;;;;;;;;;5027151;28;1156;-59
2023/06/07 04:44:50;;;;;;;;;;;;;;;;;;5026738;28;4857;-59
2023/06/07 04:47:17;;;;;;;;;;;;;;;;;;5025772;28;4901;-61
2023/06/07 04:49:42;;;;;;;;;;;;;;;;;;5025459;28;4514;-60
2023/06/07 04:52:08;;;;;;;;;;;;;;;;;;5027394;28;5280;-60
2023/06/07 04:54:36;;;;;;;;;;;;;;;;;;5030452;28;4630;-60
2023/06/07 04:57:01;;;;;;;;;;;;;;;;;;5027422;28;1052;-60
2023/06/07 04:59:34;;;;;;;;;;;;;;;;;;5062096;28;4601;-59
2023/06/07 05:01:59;;;;;;;;;;;;;;;;;;5042611;28;5032;-61
2023/06/07 05:04:25;;;;;;;;;;;;;;;;;;5029927;28;4526;-59
2023/06/07 05:06:55;;;;;;;;;;;;;;;;;;5029529;28;4480;-61
2023/06/07 05:09:20;;;;;;;;;;;;;;;;;;5030796;28;1085;-60
2023/06/07 05:11:45;;;;;;;;;;;;;;;;;;5027652;28;4433;-59
2023/06/07 05:14:10;;;;;;;;;;;;;;;;;;5026230;28;4836;-59
2023/06/07 05:16:38;;;;;;;;;;;;;;;;;;5028650;28;4641;-61
2023/06/07 05:19:03;;;;;;;;;;;;;;;;;;5028807;28;4864;-60
2023/06/07 05:21:35;;;;;;;;;;;;;;;;;;5029952;28;4478;-60
2023/06/07 05:24:07;;;;;;;;;;;;;;;;;;5030274;28;1362;-61
2023/06/07 05:26:35;;;;;;;;;;;;;;;;;;5029936;28;4476;-60
2023/06/07 05:29:01;;;;;;;;;;;;;;;;;;5027377;28;4520;-59
2023/06/07 05:31:26;;;;;;;;;;;;;;;;;;5036213;28;4477;-62
2023/06/07 05:33:51;;;;;;;;;;;;;;;;;;5009889;28;4543;-61
2023/06/07 05:36:17;;;;;;;;;;;;;;;;;;5007807;28;3497;-62
2023/06/07 05:38:42;;;;;;;;;;;;;;;;;;5008166;28;4517;-60
2023/06/07 05:41:07;;;;;;;;;;;;;;;;;;5025657;28;4502;-60
2023/06/07 05:43:33;;;;;;;;;;;;;;;;;;5008740;28;4682;-62
2023/06/07 05:45:58;;;;;;;;;;;;;;;;;;5014804;28;5248;-60
2023/06/07 05:48:23;;;;;;;;;;;;;;;;;;5017378;28;3559;-59
2023/06/07 05:50:50;;;;;;;;;;;;;;;;;;5027609;28;5028;-59
2023/06/07 05:53:16;;;;;;;;;;;;;;;;;;5029922;28;4663;-61
2023/06/07 05:55:41;;;;;;;;;;;;;;;;;;5025980;28;5143;-62
2023/06/07 05:58:06;;;;;;;;;;;;;;;;;;5028120;28;4952;-62
2023/06/07 06:00:31;;;;;;;;;;;;;;;;;;5027226;28;3750;-63
2023/06/07 06:03:00;;;;;;;;;;;;;;;;;;5022489;28;4549;-63
2023/06/07 06:05:27;;;;;;;;;;;;;;;;;;5018143;28;4479;-60
2023/06/07 06:07:53;;;;;;;;;;;;;;;;;;5040123;28;5023;-60
2023/06/07 06:10:18;;;;;;;;;;;;;;;;;;5028198;28;4987;-63
2023/06/07 06:12:43;;;;;;;;;;;;;;;;;;5028380;28;4566;-58
2023/06/07 06:15:09;;;;;;;;;;;;;;;;;;5028994;28;3624;-55
2023/06/07 06:17:34;;;;;;;;;;;;;;;;;;5040825;28;4497;-60
2023/06/07 06:20:00;;;;;;;;;;;;;;;;;;5043007;28;4811;-59
2023/06/07 06:22:25;;;;;;;;;;;;;;;;;;5035852;28;4481;-60
2023/06/07 06:24:51;;;;;;;;;;;;;;;;;;5021144;28;4530;-61
2023/06/07 06:27:16;;;;;;;;;;;;;;;;;;5027805;28;3193;-60
2023/06/07 06:29:41;;;;;;;;;;;;;;;;;;5027694;28;5005;-60
2023/06/07 06:32:07;;;;;;;;;;;;;;;;;;5027493;28;4594;-59
2023/06/07 06:34:32;;;;;;;;;;;;;;;;;;5028962;28;5102;-59
2023/06/07 06:36:57;;;;;;;;;;;;;;;;;;5026607;28;4620;-59
2023/06/07 06:39:23;;;;;;;;;;;;;;;;;;5029977;28;3338;-61
2023/06/07 06:41:49;;;;;;;;;;;;;;;;;;5028247;28;4578;-59
2023/06/07 06:44:14;;;;;;;;;;;;;;;;;;5024621;28;4772;-58
2023/06/07 06:46:39;;;;;;;;;;;;;;;;;;5023518;28;4545;-58
2023/06/07 06:49:04;;;;;;;;;;;;;;;;;;5038750;28;4618;-58
2023/06/07 06:51:31;;;;;;;;;;;;;;;;;;5023735;28;3320;-61
2023/06/07 06:53:56;;;;;;;;;;;;;;;;;;5036508;28;4444;-58
2023/06/07 06:56:22;;;;;;;;;;;;;;;;;;5024973;28;4617;-59
2023/06/07 06:58:47;;;;;;;;;;;;;;;;;;5031362;28;5045;-60
2023/06/07 07:01:15;;;;;;;;;;;;;;;;;;5011567;28;5174;-61
2023/06/07 07:03:41;;;;;;;;;;;;;;;;;;5015078;28;5239;-58
2023/06/07 07:06:07;;;;;;;;;;;;;;;;;;5014502;28;3682;-58
2023/06/07 07:08:33;;;;;;;;;;;;;;;;;;5027709;28;4539;-60
2023/06/07 07:10:59;;;;;;;;;;;;;;;;;;5012551;28;5010;-57
2023/06/07 07:13:24;;;;;;;;;;;;;;;;;;5011581;28;4479;-61
2023/06/07 07:15:52;;;;;;;;;;;;;;;;;;5006363;28;4637;-58
2023/06/07 07:18:18;;;;;;;;;;;;;;;;;;5025537;28;4528;-58
2023/06/07 07:20:45;;;;;;;;;;;;;;;;;;5033385;28;5072;-60
2023/06/07 07:23:13;;;;;;;;;;;;;;;;;;5024909;28;4837;-56
2023/06/07 07:25:42;;;;;;;;;;;;;;;;;;5015030;28;4929;-60
2023/06/07 07:28:07;;;;;;;;;;;;;;;;;;5022253;28;4469;-61
2023/06/07 07:30:33;;;;;;;;;;;;;;;;;;5011386;28;4577;-60
2023/06/07 07:32:58;;;;;;;;;;;;;;;;;;5015417;28;3656;-59
2023/06/07 07:35:23;;;;;;;;;;;;;;;;;;5011286;28;4473;-60
2023/06/07 07:37:49;;;;;;;;;;;;;;;;;;5015042;28;4573;-59
2023/06/07 07:40:14;;;;;;;;;;;;;;;;;;5012272;28;4495;-58
2023/06/07 07:42:40;;;;;;;;;;;;;;;;;;5011733;28;4644;-60
2023/06/07 07:45:05;;;;;;;;;;;;;;;;;;5016922;28;3750;-61
2023/06/07 07:47:30;;;;;;;;;;;;;;;;;;5012917;28;4581;-60
2023/06/07 07:49:56;;;;;;;;;;;;;;;;;;5016905;28;4681;-59
2023/06/07 07:52:23;;;;;;;;;;;;;;;;;;5023699;28;4781;-60
2023/06/07 07:54:48;;;;;;;;;;;;;;;;;;5025393;28;4509;-59
2023/06/07 07:57:13;;;;;;;;;;;;;;;;;;5024007;28;3289;-58
2023/06/07 07:59:39;;;;;;;;;;;;;;;;;;5023878;28;4527;-64
2023/06/07 08:02:04;;;;;;;;;;;;;;;;;;5023804;28;4669;-65
2023/06/07 08:04:29;;;;;;;;;;;;;;;;;;5039977;28;4611;-62
2023/06/07 08:06:55;;;;;;;;;;;;;;;;;;5026372;28;4635;-64
2023/06/07 08:09:20;;;;;;;;;;;;;;;;;;5024252;28;3734;-63
2023/06/07 08:11:47;;;;;;;;;;;;;;;;;;5019964;28;4445;-63
2023/06/07 08:14:12;;;;;;;;;;;;;;;;;;5024488;28;4504;-63
2023/06/07 08:16:37;;;;;;;;;;;;;;;;;;5044324;28;5177;-63
2023/06/07 08:19:05;;;;;;;;;;;;;;;;;;5024096;28;4956;-63
2023/06/07 08:21:30;;;;;;;;;;;;;;;;;;5041050;28;3254;-64
2023/06/07 08:23:56;;;;;;;;;;;;;;;;;;5025769;28;4860;-63
2023/06/07 08:26:23;;;;;;;;;;;;;;;;;;5024329;28;4454;-63
2023/06/07 08:28:48;;;;;;;;;;;;;;;;;;5023914;28;5096;-67
2023/06/07 08:31:13;;;;;;;;;;;;;;;;;;5024301;28;4851;-65
2023/06/07 08:33:40;;;;;;;;;;;;;;;;;;5027366;28;4592;-64
2023/06/07 08:36:05;;;;;;;;;;;;;;;;;;5026934;28;1190;-62
2023/06/07 08:38:30;;;;;;;;;;;;;;;;;;5024914;28;4589;-61
2023/06/07 08:40:56;;;;;;;;;;;;;;;;;;5041051;28;5116;-64
2023/06/07 08:43:21;;;;;;;;;;;;;;;;;;5027128;28;4445;-64
2023/06/07 08:45:47;;;;;;;;;;;;;;;;;;5043584;28;5187;-62
2023/06/07 08:48:13;;;;;;;;;;;;;;;;;;5026639;28;1197;-62
2023/06/07 08:50:38;;;;;;;;;;;;;;;;;;5023699;28;4747;-63
2023/06/07 08:53:06;;;;;;;;;;;;;;;;;;5025165;28;4699;-62
2023/06/07 08:55:33;;;;;;;;;;;;;;;;;;5023573;28;4938;-63
2023/06/07 08:57:59;;;;;;;;;;;;;;;;;;5026142;28;4587;-62
2023/06/07 09:00:24;;;;;;;;;;;;;;;;;;5024588;28;1146;-63
2023/06/07 09:02:51;;;;;;;;;;;;;;;;;;5025080;28;5021;-63
2023/06/07 09:05:17;;;;;;;;;;;;;;;;;;5040874;28;4648;-64
2023/06/07 09:07:42;;;;;;;;;;;;;;;;;;5025734;28;4515;-63
2023/06/07 09:10:08;;;;;;;;;;;;;;;;;;5024183;28;5121;-62
2023/06/07 09:12:33;;;;;;;;;;;;;;;;;;5023625;28;4675;-61
2023/06/07 09:14:58;;;;;;;;;;;;;;;;;;5025102;28;2154;-62
2023/06/07 09:17:23;;;;;;;;;;;;;;;;;;5040414;28;4932;-63
2023/06/07 09:19:50;;;;;;;;;;;;;;;;;;5023997;28;4940;-63
2023/06/07 09:22:17;;;;;;;;;;;;;;;;;;5029672;28;4446;-63
2023/06/07 09:24:42;;;;;;;;;;;;;;;;;;5039538;28;4525;-63
2023/06/07 09:27:08;;;;;;;;;;;;;;;;;;5026258;28;1069;-63
2023/06/07 09:29:42;;;;;;;;;;;;;;;;;;5023751;28;4485;-62
2023/06/07 09:32:17;;;;;;;;;;;;;;;;;;5015878;28;4701;-62
2023/06/07 09:34:42;;;;;;;;;;;;;;;;;;5018411;28;4664;-62
2023/06/07 09:37:07;;;;;;;;;;;;;;;;;;5023542;28;5149;-62
2023/06/07 09:39:37;;;;;;;;;;;;;;;;;;5026797;28;5182;-62
2023/06/07 09:42:04;;;;;;;;;;;;;;;;;;5028414;28;3548;-62
2023/06/07 09:44:30;;;;;;;;;;;;;;;;;;5023516;28;4484;-62
2023/06/07 09:46:56;;;;;;;;;;;;;;;;;;5028666;28;4599;-62
2023/06/07 09:49:29;;;;;;;;;;;;;;;;;;5028835;28;4557;-62
2023/06/07 09:51:54;;;;;;;;;;;;;;;;;;5045205;28;4517;-62
2023/06/07 09:54:38;;;;;;;;;;;;;;;;;;5029825;28;1233;-63
2023/06/07 09:57:24;;;;;;;;;;;;;;;;;;5026982;28;4949;-63
2023/06/07 09:59:57;;;;;;;;;;;;;;;;;;5023819;28;4669;-63
2023/06/07 10:02:24;;;;;;;;;;;;;;;;;;5028363;28;4487;-63
2023/06/07 10:04:50;;;;;;;;;;;;;;;;;;5028570;28;5274;-63
2023/06/07 10:07:16;;;;;;;;;;;;;;;;;;5060715;28;4976;-63
2023/06/07 10:09:41;;;;;;;;;;;;;;;;;;5043781;28;5135;-63
2023/06/07 10:12:07;;;;;;;;;;;;;;;;;;5044132;28;2376;-63
2023/06/07 10:14:33;;;;;;;;;;;;;;;;;;5041598;28;4754;-62
2023/06/07 10:17:07;;;;;;;;;;;;;;;;;;5027379;28;4507;-62
2023/06/07 10:19:43;;;;;;;;;;;;;;;;;;5026409;28;4802;-63
2023/06/07 10:22:11;;;;;;;;;;;;;;;;;;5024393;28;5044;-64
2023/06/07 10:24:39;;;;;;;;;;;;;;;;;;5027225;28;4722;-62
2023/06/07 10:27:23;;;;;;;;;;;;;;;;;;5028362;28;3220;-62
2023/06/07 10:29:59;;;;;;;;;;;;;;;;;;5022544;28;4448;-64
2023/06/07 10:32:25;;;;;;;;;;;;;;;;;;5059325;28;5163;-62
2023/06/07 10:34:52;;;;;;;;;;;;;;;;;;5031405;28;4554;-63
2023/06/07 10:37:18;;;;;;;;;;;;;;;;;;5041120;28;5128;-62
2023/06/07 10:39:51;;;;;;;;;;;;;;;;;;5030929;28;4983;-64
2023/06/07 10:42:17;;;;;;;;;;;;;;;;;;5027884;28;3390;-62
2023/06/07 10:44:42;;;;;;;;;;;;;;;;;;5029596;28;5033;-63
2023/06/07 10:47:26;;;;;;;;;;;;;;;;;;5027422;28;4669;-59
2023/06/07 10:49:51;;;;;;;;;;;;;;;;;;5025932;28;4535;-60
2023/06/07 10:52:17;;;;;;;;;;;;;;;;;;5028724;28;5046;-60
2023/06/07 10:54:42;;;;;;;;;;;;;;;;;;5035950;28;5214;-60
2023/06/07 10:57:08;;;;;;;;;;;;;;;;;;5042422;28;1229;-60
2023/06/07 10:59:33;;;;;;;;;;;;;;;;;;5026260;28;4453;-61
2023/06/07 11:02:28;;;;;;;;;;;;;;;;;;5027780;28;4625;-60
2023/06/07 11:04:57;;;;;;;;;;;;;;;;;;5021552;28;4446;-61
2023/06/07 11:07:30;;;;;;;;;;;;;;;;;;5026421;28;4516;-61
2023/06/07 11:10:02;;;;;;;;;;;;;;;;;;5042433;28;5464;-61
2023/06/07 11:12:46;;;;;;;;;;;;;;;;;;5026790;28;1954;-61
2023/06/07 11:15:17;;;;;;;;;;;;;;;;;;5027003;28;5689;-60
2023/06/07 11:17:58;;;;;;;;;;;;;;;;;;5028392;28;4773;-60
2023/06/07 11:20:35;;;;;;;;;;;;;;;;;;5027820;28;4554;-61
2023/06/07 11:23:20;;;;;;;;;;;;;;;;;;5027352;28;4951;-60
2023/06/07 11:25:45;;;;;;;;;;;;;;;;;;5021918;28;4505;-60
2023/06/07 11:28:11;;;;;;;;;;;;;;;;;;5025777;28;4499;-60
2023/06/07 11:30:36;;;;;;;;;;;;;;;;;;5025521;28;4889;-61
2023/06/07 11:33:03;;;;;;;;;;;;;;;;;;5027485;28;1910;-61
2023/06/07 11:35:30;;;;;;;;;;;;;;;;;;5027184;28;4448;-62
2023/06/07 11:37:55;;;;;;;;;;;;;;;;;;5027397;28;4693;-60
2023/06/07 11:40:21;;;;;;;;;;;;;;;;;;5056353;28;4693;-61
2023/06/07 11:42:46;;;;;;;;;;;;;;;;;;5021579;28;4790;-60
2023/06/07 11:45:11;;;;;;;;;;;;;;;;;;5028219;28;2352;-61
2023/06/07 11:47:37;;;;;;;;;;;;;;;;;;5037984;28;4905;-61
2023/06/07 11:50:06;;;;;;;;;;;;;;;;;;5034873;28;4550;-62
2023/06/07 11:52:31;;;;;;;;;;;;;;;;;;5032464;28;4653;-61
2023/06/07 11:54:57;;;;;;;;;;;;;;;;;;5027138;28;5398;-61
2023/06/07 11:57:22;;;;;;;;;;;;;;;;;;5027482;28;1347;-61
2023/06/07 11:59:50;;;;;;;;;;;;;;;;;;5023644;28;4619;-62
2023/06/07 12:02:16;;;;;;;;;;;;;;;;;;5024460;28;4896;-60
2023/06/07 12:04:42;;;;;;;;;;;;;;;;;;5023493;28;4870;-60
2023/06/07 12:07:18;;;;;;;;;;;;;;;;;;5025613;28;4465;-61
2023/06/07 12:09:43;;;;;;;;;;;;;;;;;;5046280;28;5051;-62
2023/06/07 12:12:14;;;;;;;;;;;;;;;;;;5025419;28;1910;-61
2023/06/07 12:14:40;;;;;;;;;;;;;;;;;;5018893;28;4541;-60
2023/06/07 12:17:06;;;;;;;;;;;;;;;;;;5056682;28;4901;-59
2023/06/07 12:19:31;;;;;;;;;;;;;;;;;;5025055;28;5011;-60
2023/06/07 12:22:05;;;;;;;;;;;;;;;;;;5025378;28;4915;-60
2023/06/07 12:24:31;;;;;;;;;;;;;;;;;;5021576;28;3407;-59
2023/06/07 12:27:00;;;;;;;;;;;;;;;;;;5024881;28;5030;-60
2023/06/07 12:29:29;;;;;;;;;;;;;;;;;;5055559;28;4461;-56
2023/06/07 12:31:55;;;;;;;;;;;;;;;;;;5025386;28;4641;-58
2023/06/07 12:34:21;;;;;;;;;;;;;;;;;;5026298;28;4496;-61
2023/06/07 12:36:46;;;;;;;;;;;;;;;;;;5026377;28;4498;-61
2023/06/07 12:39:13;;;;;;;;;;;;;;;;;;5035043;28;2362;-61
2023/06/07 12:41:39;;;;;;;;;;;;;;;;;;5023607;28;4496;-59
2023/06/07 12:44:07;;;;;;;;;;;;;;;;;;5023365;28;4428;-61
2023/06/07 12:46:32;;;;;;;;;;;;;;;;;;5025341;28;5104;-60
2023/06/07 12:48:57;;;;;;;;;;;;;;;;;;5025855;28;4534;-61
2023/06/07 12:51:23;;;;;;;;;;;;;;;;;;5023430;28;1910;-61
2023/06/07 12:53:48;;;;;;;;;;;;;;;;;;5023968;28;4582;-60
2023/06/07 12:56:14;;;;;;;;;;;;;;;;;;5025937;28;4524;-61
2023/06/07 12:58:39;;;;;;;;;;;;;;;;;;5025870;28;4720;-61
2023/06/07 13:01:05;;;;;;;;;;;;;;;;;;5026202;28;4920;-61
2023/06/07 13:03:30;;;;;;;;;;;;;;;;;;5026604;28;1102;-61
2023/06/07 13:05:56;;;;;;;;;;;;;;;;;;5041364;28;4982;-60
2023/06/07 13:08:21;;;;;;;;;;;;;;;;;;5025587;28;4439;-61
2023/06/07 13:10:47;;;;;;;;;;;;;;;;;;5018846;28;4956;-61
2023/06/07 13:13:13;;;;;;;;;;;;;;;;;;5022895;28;4572;-60
2023/06/07 13:15:38;;;;;;;;;;;;;;;;;;5030246;28;4553;-60
2023/06/07 13:18:04;;;;;;;;;;;;;;;;;;5030479;28;4610;-60
2023/06/07 13:20:29;;;;;;;;;;;;;;;;;;5029576;28;4621;-61
2023/06/07 13:22:54;;;;;;;;;;;;;;;;;;5027678;28;4685;-61
2023/06/07 13:25:20;;;;;;;;;;;;;;;;;;5029038;28;4483;-60
2023/06/07 13:27:45;;;;;;;;;;;;;;;;;;5029101;28;4647;-61
2023/06/07 13:30:10;;;;;;;;;;;;;;;;;;5030539;28;1070;-60
2023/06/07 13:32:36;;;;;;;;;;;;;;;;;;5028089;28;4584;-60
2023/06/07 13:35:01;;;;;;;;;;;;;;;;;;5029805;28;4598;-59
2023/06/07 13:37:26;;;;;;;;;;;;;;;;;;5028256;28;4684;-60
2023/06/07 13:39:51;;;;;;;;;;;;;;;;;;5029788;28;4488;-61
2023/06/07 13:42:21;;;;;;;;;;;;;;;;;;5028786;28;3304;-60
2023/06/07 13:44:46;;;;;;;;;;;;;;;;;;5029735;28;4466;-60
2023/06/07 13:47:11;;;;;;;;;;;;;;;;;;5027127;28;5215;-60
2023/06/07 13:49:37;;;;;;;;;;;;;;;;;;5028276;28;5482;-61
2023/06/07 13:52:03;;;;;;;;;;;;;;;;;;5018580;28;4607;-62
2023/06/07 13:54:31;;;;;;;;;;;;;;;;;;5027758;28;3252;-62
2023/06/07 13:56:56;;;;;;;;;;;;;;;;;;5029479;28;4482;-60
2023/06/07 13:59:22;;;;;;;;;;;;;;;;;;5029100;28;4730;-67
2023/06/07 14:01:47;;;;;;;;;;;;;;;;;;5029743;28;4698;-63
2023/06/07 14:04:12;;;;;;;;;;;;;;;;;;5030519;28;4563;-63
2023/06/07 14:06:38;;;;;;;;;;;;;;;;;;5029546;28;4488;-61
2023/06/07 14:09:04;;;;;;;;;;;;;;;;;;5027068;28;3525;-59
2023/06/07 14:11:30;;;;;;;;;;;;;;;;;;5026149;28;4915;-59
2023/06/07 14:13:56;;;;;;;;;;;;;;;;;;5027767;28;4765;-58
2023/06/07 14:16:21;;;;;;;;;;;;;;;;;;5024828;28;4782;-60
2023/06/07 14:18:47;;;;;;;;;;;;;;;;;;5052899;28;4814;-62
2023/06/07 14:21:12;;;;;;;;;;;;;;;;;;5026025;28;3269;-59
2023/06/07 14:23:38;;;;;;;;;;;;;;;;;;5054764;28;5059;-59
2023/06/07 14:26:03;;;;;;;;;;;;;;;;;;5024830;28;4516;-58
2023/06/07 14:28:29;;;;;;;;;;;;;;;;;;5040938;28;4714;-58
2023/06/07 14:30:55;;;;;;;;;;;;;;;;;;5038787;28;4509;-60
2023/06/07 14:33:20;;;;;;;;;;;;;;;;;;5053626;28;3550;-59
2023/06/07 14:35:45;;;;;;;;;;;;;;;;;;5026234;28;4572;-59
2023/06/07 14:38:10;;;;;;;;;;;;;;;;;;5023750;28;4491;-59
2023/06/07 14:40:36;;;;;;;;;;;;;;;;;;5026285;28;4597;-58
2023/06/07 14:43:01;;;;;;;;;;;;;;;;;;5024813;28;4643;-59
2023/06/07 14:45:26;;;;;;;;;;;;;;;;;;5023497;28;3423;-59
2023/06/07 14:47:52;;;;;;;;;;;;;;;;;;5023314;28;4964;-59
2023/06/07 14:50:17;;;;;;;;;;;;;;;;;;5025938;28;4955;-58
2023/06/07 14:52:42;;;;;;;;;;;;;;;;;;5026695;28;5750;-58
2023/06/07 14:55:08;;;;;;;;;;;;;;;;;;5028178;28;4638;-59
2023/06/07 14:57:33;;;;;;;;;;;;;;;;;;5023148;28;4678;-58
2023/06/07 14:59:58;;;;;;;;;;;;;;;;;;5026248;28;3310;-59
2023/06/07 15:02:23;;;;;;;;;;;;;;;;;;5026992;28;4444;-59
2023/06/07 15:04:49;;;;;;;;;;;;;;;;;;5025775;28;4512;-58
2023/06/07 15:07:14;;;;;;;;;;;;;;;;;;5022201;28;4834;-59
2023/06/07 15:09:40;;;;;;;;;;;;;;;;;;5025378;28;5050;-59
2023/06/07 15:12:05;;;;;;;;;;;;;;;;;;5024382;28;3373;-58
2023/06/07 15:14:31;;;;;;;;;;;;;;;;;;5025515;28;4935;-60
2023/06/07 15:16:56;;;;;;;;;;;;;;;;;;5023078;28;5024;-58
2023/06/07 15:19:21;;;;;;;;;;;;;;;;;;5020368;28;5015;-59
2023/06/07 15:21:47;;;;;;;;;;;;;;;;;;5040399;28;4520;-59
2023/06/07 15:24:13;;;;;;;;;;;;;;;;;;5021830;28;3617;-62
2023/06/07 15:26:40;;;;;;;;;;;;;;;;;;5024622;28;4959;-59
2023/06/07 15:29:05;;;;;;;;;;;;;;;;;;5024956;28;4998;-59
2023/06/07 15:31:31;;;;;;;;;;;;;;;;;;5057313;28;4652;-59
2023/06/07 15:33:57;;;;;;;;;;;;;;;;;;5042915;28;4532;-59
2023/06/07 15:36:22;;;;;;;;;;;;;;;;;;5023012;28;3543;-59
2023/06/07 15:38:48;;;;;;;;;;;;;;;;;;5026277;28;4998;-59
2023/06/07 15:41:14;;;;;;;;;;;;;;;;;;5021786;28;5548;-58
2023/06/07 15:43:45;;;;;;;;;;;;;;;;;;5023901;28;4515;-59
2023/06/07 15:46:10;;;;;;;;;;;;;;;;;;5024841;28;4703;-59
2023/06/07 15:48:36;;;;;;;;;;;;;;;;;;5056894;28;4631;-59
2023/06/07 15:51:01;;;;;;;;;;;;;;;;;;5024997;28;3525;-58
2023/06/07 15:53:26;;;;;;;;;;;;;;;;;;5021770;28;4483;-59
2023/06/07 15:55:51;;;;;;;;;;;;;;;;;;5023854;28;4670;-59
2023/06/07 15:58:17;;;;;;;;;;;;;;;;;;5053966;28;4626;-58
2023/06/07 16:00:46;;;;;;;;;;;;;;;;;;5024261;28;4662;-57
2023/06/07 16:03:11;;;;;;;;;;;;;;;;;;5022861;28;3459;-57
2023/06/07 16:07:20;;;;;;;;;;;;;;;;;;5078710;27;4707;-72
2023/06/07 16:09:45;;;;;;;;;;;;;;;;;;5056460;28;5088;-68
2023/06/07 16:12:12;;;;;;;;;;;;;;;;;;5053856;28;3653;-66
2023/06/07 16:14:37;;;;;;;;;;;;;;;;;;5050069;28;4512;-64
2023/06/07 16:17:04;;;;;;;;;;;;;;;;;;5050798;28;4646;-65
2023/06/07 16:19:29;;;;;;;;;;;;;;;;;;5049713;28;4721;-68
2023/06/07 16:21:55;;;;;;;;;;;;;;;;;;5050695;28;5107;-70
2023/06/07 16:24:20;;;;;;;;;;;;;;;;;;5048078;28;3346;-68
2023/06/07 16:26:45;;;;;;;;;;;;;;;;;;5058180;28;4639;-67
2023/06/07 16:29:10;;;;;;;;;;;;;;;;;;5062165;28;4530;-66
2023/06/07 16:31:36;;;;;;;;;;;;;;;;;;5053221;28;4636;-68
2023/06/07 16:34:02;;;;;;;;;;;;;;;;;;5047794;28;4517;-69
2023/06/07 16:36:28;;;;;;;;;;;;;;;;;;5049630;28;3387;-69
2023/06/07 16:38:54;;;;;;;;;;;;;;;;;;5056126;28;4526;-74
2023/06/07 16:41:22;;;;;;;;;;;;;;;;;;5057405;28;4590;-71
2023/06/07 16:43:49;;;;;;;;;;;;;;;;;;5049694;28;4536;-65
2023/06/07 16:46:14;;;;;;;;;;;;;;;;;;5052790;28;4483;-68
2023/06/07 16:48:39;;;;;;;;;;;;;;;;;;5056395;28;5063;-67
2023/06/07 16:51:05;;;;;;;;;;;;;;;;;;5055042;28;3691;-66
2023/06/07 16:53:30;;;;;;;;;;;;;;;;;;5051300;28;4919;-66
2023/06/07 16:55:55;;;;;;;;;;;;;;;;;;5052231;28;4540;-66
2023/06/07 16:58:23;;;;;;;;;;;;;;;;;;5046478;28;4506;-66